createdAt,value
2023-11-21T15:58:04.595Z,49.29
2023-11-21T16:03:20.244Z,45.95
2023-11-21T16:06:05.837Z,45.81
2023-11-21T16:11:37.749Z,44.54
2023-11-21T16:14:23.995Z,44.97
2023-11-21T16:20:14.472Z,42.77
2023-11-21T16:23:00.330Z,42.04
2023-11-21T16:25:46.383Z,39.70
2023-11-21T16:31:58.472Z,36.65
2023-11-21T16:34:44.561Z,35.72
2023-11-21T16:37:30.396Z,34.76
2023-11-21T16:40:16.230Z,34.37
2023-11-21T16:43:02.155Z,33.97
2023-11-21T16:45:48.151Z,33.84
2023-11-21T16:48:34.545Z,33.91
2023-11-21T16:51:20.665Z,33.86
2023-11-21T16:54:06.724Z,32.87
2023-11-21T16:56:52.743Z,33.19
2023-11-21T16:59:38.746Z,32.63
2023-11-21T17:02:24.566Z,32.93
2023-11-21T17:05:10.447Z,32.89
2023-11-21T17:07:56.513Z,33.02
2023-11-21T17:10:42.905Z,32.69
2023-11-21T17:13:28.611Z,32.75
2023-11-21T17:16:14.523Z,32.75
2023-11-21T17:19:00.426Z,32.62
2023-11-21T17:21:46.210Z,32.38
2023-11-21T17:24:32.103Z,32.31
2023-11-21T17:27:18.004Z,32.62
2023-11-21T17:30:03.905Z,32.60
2023-11-21T17:32:50.419Z,32.49
2023-11-21T17:35:36.450Z,32.22
2023-11-21T17:38:22.495Z,32.36
2023-11-21T17:41:08.374Z,32.66
2023-11-21T17:43:54.192Z,32.48
2023-11-21T17:46:40.677Z,32.48
2023-11-21T17:49:29.306Z,32.37
2023-11-21T17:52:16.025Z,32.51
2023-11-21T17:55:01.925Z,32.22
2023-11-21T17:57:47.940Z,32.29
2023-11-21T18:00:33.807Z,32.26
2023-11-21T18:03:19.813Z,32.45
2023-11-21T18:06:05.680Z,32.42
2023-11-21T18:08:51.679Z,32.40
2023-11-21T18:11:37.703Z,32.46
2023-11-21T18:14:24.049Z,32.26
2023-11-21T18:17:10.005Z,32.41
2023-11-21T18:19:56.292Z,32.42
2023-11-21T18:22:42.113Z,32.67
2023-11-21T18:25:28.060Z,33.48
2023-11-21T20:20:21.429Z,35.42
2023-11-21T20:23:07.508Z,34.04
2023-11-21T20:25:53.519Z,33.34
2023-11-21T20:28:39.481Z,33.08
2023-11-21T20:31:25.485Z,32.64
2023-11-21T20:34:11.561Z,32.57
2023-11-21T20:36:57.398Z,32.41
2023-11-21T20:39:43.267Z,32.34
2023-11-21T20:46:45.233Z,32.12
2023-11-21T20:50:48.533Z,31.95
2023-11-21T20:53:37.172Z,31.92
2023-11-21T20:56:25.454Z,31.86
2023-11-21T20:59:14.145Z,31.99
2023-11-21T21:02:02.822Z,31.93
2023-11-21T21:04:50.896Z,31.59
2023-11-21T21:07:38.859Z,31.86
2023-11-21T21:10:27.314Z,31.85
2023-11-21T21:13:18.932Z,31.55
2023-11-21T21:16:07.436Z,31.54
2023-11-21T21:18:56.697Z,31.55
2023-11-21T21:21:45.518Z,31.55
2023-11-21T21:24:34.287Z,31.36
2023-11-21T21:27:23.359Z,31.38
2023-11-21T21:30:12.024Z,31.28
2023-11-21T21:33:01.756Z,31.11
2023-11-21T21:35:50.066Z,31.36
2023-11-21T21:38:40.708Z,31.19
2023-11-21T21:41:30.811Z,30.94
2023-11-21T21:44:18.771Z,31.08
2023-11-21T21:47:11.353Z,30.84
2023-11-21T21:50:01.327Z,30.63
2023-11-21T21:52:49.706Z,30.69
2023-11-21T21:55:37.938Z,30.94
2023-11-21T21:58:27.558Z,30.72
2023-11-21T22:01:15.684Z,30.51
2023-11-21T22:04:07.333Z,30.23
2023-11-21T22:06:55.582Z,29.97
2023-11-21T22:09:43.614Z,30.29
2023-11-21T22:12:31.385Z,30.21
2023-11-21T22:15:19.178Z,30.21
2023-11-21T22:18:07.163Z,30.53
2023-11-21T22:20:55.423Z,30.40
2023-11-21T22:23:43.231Z,30.39
2023-11-21T22:26:31.125Z,30.54
2023-11-21T22:29:19.195Z,30.38
2023-11-21T22:32:07.279Z,30.29
2023-11-21T22:34:55.190Z,30.36
2023-11-21T22:37:43.111Z,30.49
2023-11-21T22:40:30.986Z,30.32
2023-11-21T22:43:18.865Z,30.61
2023-11-21T22:46:09.697Z,30.39
2023-11-21T22:48:58.405Z,30.55
2023-11-21T22:51:46.867Z,30.36
2023-11-21T22:54:34.762Z,30.48
2023-11-21T22:57:23.251Z,30.81
2023-11-21T23:00:22.103Z,30.72
2023-11-21T23:03:10.257Z,30.74
2023-11-21T23:05:58.669Z,30.54
2023-11-21T23:10:19.750Z,30.52
2023-11-21T23:13:09.521Z,30.85
2023-11-21T23:15:57.904Z,31.60
2023-11-21T23:18:50.846Z,32.00
2023-11-21T23:21:39.148Z,32.25
2023-11-21T23:24:26.976Z,32.67
2023-11-21T23:27:14.869Z,32.92
2023-11-21T23:30:02.614Z,32.99
2023-11-21T23:32:50.753Z,33.26
2023-11-21T23:35:40.141Z,33.21
2023-11-21T23:38:27.960Z,33.46
2023-11-21T23:41:17.694Z,33.58
2023-11-21T23:44:06.078Z,33.59
2023-11-21T23:46:54.234Z,33.65
2023-11-21T23:49:42.750Z,33.70
2023-11-21T23:52:30.632Z,33.89
2023-11-21T23:55:19.715Z,33.90
2023-11-21T23:58:09.542Z,33.96
